Time;durP1;ratioP1;P1;durP2;ratioP2;P2;SDS_P1;SDS_P2;PMS_P1;PMS_P2;Temp;Humidity;BMP_temperature;BMP_pressure;BME280_temperature;BME280_humidity;BME280_pressure;Samples;Min_cycle;Max_cycle;Signal;HPM_P1;HPM_P2
2022/04/09 00:01:15;;;;;;;7.43;5.10;;;4.30;99.90;;;4.17;71.73;99042.97;4806621;29;20262;-74
2022/04/09 00:03:44;;;;;;;7.75;4.93;;;4.30;99.90;;;4.13;72.08;99039.06;4807234;29;20190;-74
2022/04/09 00:06:16;;;;;;;4.70;4.30;;;4.30;99.90;;;4.10;71.94;99052.88;4807087;29;20193;-73
2022/04/09 00:08:45;;;;;;;7.00;5.32;;;4.30;99.90;;;4.19;71.48;99054.31;4809963;29;20186;-73
2022/04/09 00:11:14;;;;;;;6.68;5.05;;;4.30;99.90;;;4.23;71.68;99055.56;4809867;29;20225;-73
2022/04/09 00:13:47;;;;;;;7.57;4.88;;;4.30;99.90;;;4.21;71.49;99058.44;4808489;29;20315;-73
2022/04/09 00:16:16;;;;;;;8.50;4.72;;;4.40;99.90;;;4.14;72.03;99056.78;4810278;29;20591;-73
2022/04/09 00:18:45;;;;;;;5.43;3.85;;;4.30;99.90;;;4.05;72.27;99058.03;4809718;29;20649;-73
2022/04/09 00:21:14;;;;;;;4.75;4.25;;;4.30;99.90;;;4.09;71.96;99061.94;4807816;29;20217;-74
2022/04/09 00:23:43;;;;;;;5.15;4.50;;;4.30;99.90;;;4.06;72.29;99065.03;4809171;29;20276;-73
2022/04/09 00:26:12;;;;;;;11.02;4.90;;;4.20;99.90;;;4.07;72.35;99062.13;4809518;29;20284;-73
2022/04/09 00:28:41;;;;;;;4.70;4.07;;;4.20;99.90;;;4.03;71.84;99060.06;4809058;29;20198;-74
2022/04/09 00:31:12;;;;;;;6.15;4.53;;;4.20;99.90;;;4.07;72.26;99061.31;4808508;29;20217;-73
2022/04/09 00:33:41;;;;;;;5.75;4.75;;;4.20;99.90;;;4.05;72.32;99066.88;4808484;29;20654;-73
2022/04/09 00:36:10;;;;;;;9.57;5.38;;;4.20;99.90;;;3.94;72.47;99056.78;4837578;29;20613;-73
2022/04/09 00:38:39;;;;;;;8.32;4.80;;;4.10;99.90;;;3.91;72.67;99071.41;4823526;29;20193;-73
2022/04/09 00:41:11;;;;;;;8.88;4.18;;;4.10;99.90;;;3.94;72.80;99065.63;4837187;29;20229;-73
2022/04/09 00:43:42;;;;;;;9.40;5.07;;;4.10;99.90;;;3.93;72.79;99066.66;4808188;29;20265;-72
2022/04/09 00:46:15;;;;;;;12.32;5.50;;;4.10;99.90;;;3.89;72.87;99065.41;4808575;29;20217;-73
2022/04/09 00:48:45;;;;;;;6.00;5.38;;;4.00;99.90;;;3.93;72.72;99066.66;4808294;29;20190;-73
2022/04/09 00:51:14;;;;;;;6.15;4.50;;;4.10;99.90;;;3.98;72.47;99068.72;4822237;29;20320;-73
2022/04/09 00:53:48;;;;;;;9.90;5.20;;;4.10;99.90;;;4.01;72.47;99068.31;4822353;29;20731;-73
2022/04/09 00:56:22;;;;;;;10.98;4.68;;;4.10;99.90;;;3.91;72.57;99068.72;4808356;29;20182;-73
2022/04/09 00:58:55;;;;;;;8.15;5.47;;;4.10;99.90;;;3.82;72.92;99069.94;4808472;29;20655;-73
2022/04/09 01:01:30;;;;;;;10.18;5.15;;;4.00;99.90;;;3.82;73.20;99079.81;4822508;29;20587;-73
2022/04/09 01:04:01;;;;;;;5.90;5.20;;;4.00;99.90;;;3.75;72.97;99082.47;4808243;29;20547;-74
2022/04/09 01:06:32;;;;;;;6.68;4.47;;;4.00;99.90;;;3.76;72.88;99083.28;4807285;29;20684;-74
2022/04/09 01:09:02;;;;;;;6.97;4.25;;;3.90;99.90;;;3.75;73.19;99085.16;4821708;29;20221;-72
2022/04/09 01:11:32;;;;;;;7.13;4.78;;;3.90;99.90;;;3.71;73.27;99083.06;4806468;29;20596;-73
2022/04/09 01:14:02;;;;;;;14.75;5.75;;;3.90;99.90;;;3.74;72.91;99088.84;4806668;29;20205;-73
2022/04/09 01:16:33;;;;;;;7.22;4.05;;;3.90;99.90;;;3.70;72.83;99092.94;4836968;29;20201;-73
2022/04/09 01:19:03;;;;;;;4.93;4.53;;;3.90;99.90;;;3.69;73.06;99102.00;4805931;29;20343;-73
2022/04/09 01:21:36;;;;;;;5.50;4.35;;;3.80;99.90;;;3.69;73.12;99102.00;4806194;29;20245;-73
2022/04/09 01:24:07;;;;;;;5.97;4.20;;;3.80;99.90;;;3.66;72.88;99091.72;4821377;29;20201;-73
2022/04/09 01:26:43;;;;;;;4.45;3.80;;;3.80;99.90;;;3.64;73.30;99109.78;4821710;29;20233;-72
2022/04/09 01:29:23;;;;;;;8.45;4.13;;;3.80;99.90;;;3.60;73.46;99115.75;4821045;29;20201;-73
2022/04/09 01:31:52;;;;;;;5.57;4.50;;;3.80;99.90;;;3.53;73.76;99118.41;4821429;29;20198;-73
2022/04/09 01:34:23;;;;;;;8.93;4.68;;;3.70;99.90;;;3.60;73.30;99119.25;4821001;29;20313;-73
2022/04/09 01:36:52;;;;;;;6.38;4.95;;;3.70;99.90;;;3.61;73.74;99126.25;4836481;29;20288;-73
2022/04/09 01:39:22;;;;;;;6.30;4.32;;;3.70;99.90;;;3.59;73.36;99128.28;4821163;29;20289;-73
2022/04/09 01:41:51;;;;;;;4.97;3.63;;;3.70;99.90;;;3.59;73.50;99132.81;4805881;29;20284;-74
2022/04/09 01:44:21;;;;;;;5.20;3.40;;;3.70;99.90;;;3.60;73.37;99129.94;4807686;29;20185;-73
2022/04/09 01:46:50;;;;;;;5.85;3.53;;;3.70;99.90;;;3.57;73.70;99146.41;4821750;29;20201;-74
2022/04/09 01:49:19;;;;;;;6.85;3.80;;;3.70;99.90;;;3.52;73.59;99132.81;4821190;29;20573;-73
2022/04/09 01:51:50;;;;;;;4.95;3.65;;;3.70;99.90;;;3.62;73.29;99138.59;4807409;29;20201;-73
2022/04/09 01:54:20;;;;;;;7.78;3.35;;;3.70;99.90;;;3.61;73.17;99136.94;4821209;29;20205;-73
2022/04/09 01:56:51;;;;;;;7.82;3.45;;;3.80;99.90;;;3.63;73.14;99144.78;4821209;29;20202;-73
2022/04/09 01:59:20;;;;;;;5.65;3.15;;;3.70;99.90;;;3.57;73.20;99151.75;4821086;29;20202;-73
2022/04/09 02:01:50;;;;;;;5.55;3.28;;;3.70;99.90;;;3.62;73.45;99154.66;4836469;29;20353;-73
2022/04/09 02:04:20;;;;;;;9.43;3.60;;;3.80;99.90;;;3.65;73.34;99164.94;4807270;29;20181;-73
2022/04/09 02:06:50;;;;;;;7.97;5.30;;;3.80;99.90;;;3.66;73.23;99158.56;4836245;29;20204;-74
2022/04/09 02:09:19;;;;;;;10.23;5.38;;;3.80;99.90;;;3.66;73.15;99160.44;4807022;29;20170;-73
2022/04/09 02:11:48;;;;;;;3.55;2.95;;;3.80;99.90;;;3.68;73.30;99161.06;4836082;29;20217;-73
2022/04/09 02:14:19;;;;;;;5.72;3.30;;;3.80;99.90;;;3.67;73.46;99162.09;4806899;29;20250;-74
2022/04/09 02:16:48;;;;;;;11.05;3.72;;;3.80;99.90;;;3.70;73.08;99162.50;4807129;29;20224;-74
2022/04/09 02:19:17;;;;;;;9.18;3.53;;;3.80;99.90;;;3.71;73.07;99169.50;4808764;29;20221;-72
2022/04/09 02:21:46;;;;;;;6.63;4.07;;;3.80;99.90;;;3.71;73.16;99176.69;4805974;29;20204;-73
2022/04/09 02:24:15;;;;;;;12.13;3.30;;;3.80;99.90;;;3.68;73.20;99177.91;4805588;29;20209;-72
2022/04/09 02:26:44;;;;;;;5.43;3.92;;;3.80;99.90;;;3.68;73.35;99180.59;4806731;29;20276;-72
2022/04/09 02:29:14;;;;;;;7.07;3.70;;;3.90;99.90;;;3.61;73.89;99187.78;4805184;29;20177;-73
2022/04/09 02:31:44;;;;;;;6.25;4.15;;;3.80;99.90;;;3.60;73.61;99194.13;4805436;29;20692;-72
2022/04/09 02:34:13;;;;;;;5.75;3.80;;;3.80;99.90;;;3.63;73.62;99191.06;4820539;29;20262;-73
2022/04/09 02:36:44;;;;;;;5.90;3.28;;;3.80;99.90;;;3.57;73.64;99196.38;4820930;29;20250;-72
2022/04/09 02:39:13;;;;;;;13.27;5.57;;;3.70;99.90;;;3.57;73.68;99199.91;4806752;29;20213;-72
2022/04/09 02:41:42;;;;;;;9.40;3.70;;;3.70;99.90;;;3.60;73.93;99204.84;4835941;29;20206;-73
2022/04/09 02:44:11;;;;;;;5.18;3.50;;;3.70;99.90;;;3.52;74.00;99207.69;4821156;29;20221;-72
2022/04/09 02:46:40;;;;;;;7.82;4.22;;;3.70;99.90;;;3.50;74.35;99215.06;4805486;29;20197;-72
2022/04/09 02:49:10;;;;;;;21.23;4.43;;;3.60;99.90;;;3.43;74.40;99224.91;4820811;29;20228;-72
2022/04/09 02:51:39;;;;;;;5.78;5.00;;;3.60;99.90;;;3.36;74.80;99224.03;4820782;29;20229;-72
2022/04/09 02:54:15;;;;;;;5.05;4.55;;;3.60;99.90;;;3.28;74.80;99227.69;4805673;29;20221;-73
2022/04/09 02:56:47;;;;;;;6.50;4.93;;;3.50;99.90;;;3.25;75.20;99238.75;4805855;29;20228;-72
2022/04/09 02:59:20;;;;;;;5.18;3.45;;;3.40;99.90;;;3.18;75.40;99234.41;4820634;29;20308;-72
2022/04/09 03:01:49;;;;;;;14.55;4.63;;;3.40;99.90;;;3.22;75.53;99246.34;4835522;29;20201;-72
2022/04/09 03:04:21;;;;;;;5.78;3.55;;;3.40;99.90;;;3.18;75.32;99247.78;4819946;29;20202;-72
2022/04/09 03:06:50;;;;;;;7.75;4.00;;;3.30;99.90;;;3.15;75.69;99256.19;4805955;29;20542;-73
2022/04/09 03:09:19;;;;;;;4.68;3.30;;;3.30;99.90;;;3.14;75.71;99265.22;4834910;29;20205;-72
2022/04/09 03:11:48;;;;;;;6.18;3.67;;;3.30;99.90;;;3.04;76.13;99263.72;4820155;29;20284;-72
2022/04/09 03:14:17;;;;;;;6.43;3.42;;;3.30;99.90;;;3.02;76.17;99272.94;4820079;29;20201;-73
2022/04/09 03:16:47;;;;;;;9.15;3.75;;;3.20;99.90;;;3.00;76.22;99273.09;4820083;29;20193;-72
2022/04/09 03:19:16;;;;;;;7.68;4.10;;;3.20;99.90;;;2.99;76.44;99276.81;4820061;29;20213;-72
2022/04/09 03:21:46;;;;;;;8.95;4.28;;;3.20;99.90;;;3.02;76.44;99279.09;4835184;29;20254;-72
2022/04/09 03:24:15;;;;;;;5.93;3.70;;;3.20;99.90;;;2.97;76.64;99283.38;4819974;29;20666;-72
2022/04/09 03:26:45;;;;;;;5.65;3.70;;;3.20;99.90;;;2.91;76.92;99289.47;4804813;29;20201;-72
2022/04/09 03:29:14;;;;;;;12.63;4.80;;;3.10;99.90;;;2.86;77.01;99284.69;4820027;29;20573;-72
2022/04/09 03:31:45;;;;;;;5.72;4.32;;;3.00;99.90;;;2.81;76.97;99297.81;4820225;29;20292;-72
2022/04/09 03:34:16;;;;;;;7.88;4.50;;;3.00;99.90;;;2.76;77.41;99297.56;4834885;29;20552;-72
2022/04/09 03:36:47;;;;;;;4.55;3.53;;;3.00;99.90;;;2.74;77.74;99304.94;4819766;29;20205;-72
2022/04/09 03:39:16;;;;;;;5.85;4.45;;;2.90;99.90;;;2.72;77.75;99309.63;4819513;29;20221;-72
2022/04/09 03:41:46;;;;;;;9.90;4.57;;;2.90;99.90;;;2.77;77.47;99303.72;4819727;29;20611;-73
2022/04/09 03:44:35;;;;;;;6.03;3.80;;;2.90;99.90;;;2.65;77.93;99306.09;4820252;29;20258;-72
2022/04/09 03:47:06;;;;;;;6.50;4.00;;;2.90;99.90;;;2.65;77.90;99307.94;4820590;29;20238;-72
2022/04/09 03:49:37;;;;;;;10.52;5.15;;;2.90;99.90;;;2.68;78.10;99316.38;4816902;29;20232;-73
2022/04/09 03:52:08;;;;;;;5.82;4.28;;;2.90;99.90;;;2.60;78.22;99330.69;4816400;29;20228;-73
2022/04/09 03:54:38;;;;;;;9.90;4.30;;;2.80;99.90;;;2.61;78.34;99337.66;4816889;29;20198;-73
2022/04/09 03:57:09;;;;;;;8.85;4.95;;;2.80;99.90;;;2.55;78.57;99342.94;4787542;29;20179;-73
2022/04/09 03:59:46;;;;;;;9.75;4.70;;;2.70;99.90;;;2.58;78.53;99348.72;4816287;29;20654;-73
2022/04/09 04:02:15;;;;;;;6.70;4.75;;;2.70;99.90;;;2.52;78.78;99352.16;4816494;29;20190;-72
2022/04/09 04:04:44;;;;;;;8.10;4.32;;;2.70;99.90;;;2.56;78.77;99357.97;4786215;30;20654;-72
2022/04/09 04:07:20;;;;;;;12.80;4.40;;;2.70;99.90;;;2.56;78.85;99368.66;4816535;29;20666;-72
2022/04/09 04:09:50;;;;;;;8.93;4.82;;;2.70;99.90;;;2.52;78.88;99364.66;4816541;29;20616;-73
2022/04/09 04:12:19;;;;;;;12.63;5.15;;;2.70;99.90;;;2.50;78.80;99369.38;4816146;29;20199;-73
2022/04/09 04:14:48;;;;;;;12.13;4.95;;;2.70;99.90;;;2.52;78.88;99375.34;4816406;29;20198;-72
2022/04/09 04:17:17;;;;;;;12.63;4.80;;;2.70;99.90;;;2.49;79.01;99381.91;4816570;29;20309;-72
2022/04/09 04:19:46;;;;;;;8.95;5.40;;;2.70;99.90;;;2.43;79.29;99387.97;4786003;29;20232;-73
2022/04/09 04:22:17;;;;;;;10.60;5.78;;;2.70;99.90;;;2.50;79.06;99398.75;4816439;29;20222;-73
2022/04/09 04:24:46;;;;;;;5.85;3.85;;;2.70;99.90;;;2.60;79.29;99393.94;4816476;29;20275;-73
2022/04/09 04:27:15;;;;;;;9.88;4.88;;;2.70;99.90;;;2.78;78.81;99407.72;4787534;29;20282;-73
2022/04/09 04:29:45;;;;;;;7.80;4.45;;;2.80;99.90;;;2.78;78.37;99413.06;4816687;29;20571;-73
2022/04/09 04:32:13;;;;;;;8.00;4.65;;;2.90;99.90;;;2.73;78.42;99418.13;4816945;29;20198;-73
2022/04/09 04:34:43;;;;;;;24.15;6.30;;;2.90;99.90;;;2.69;78.34;99419.53;4815964;29;20202;-73
2022/04/09 04:37:11;;;;;;;15.60;3.92;;;2.90;99.90;;;2.65;78.84;99422.75;4786786;29;20200;-73
2022/04/09 04:39:42;;;;;;;6.93;4.45;;;2.80;99.90;;;2.64;78.79;99432.63;4815733;29;20236;-72
2022/04/09 04:42:12;;;;;;;8.88;4.03;;;2.90;99.90;;;2.61;78.99;99435.66;4816266;29;20725;-73
2022/04/09 04:44:41;;;;;;;10.65;4.40;;;2.80;99.90;;;2.59;79.16;99441.19;4816332;29;20206;-73
2022/04/09 04:47:10;;;;;;;8.30;3.80;;;2.80;99.90;;;2.60;79.03;99450.03;4815990;29;20232;-73
2022/04/09 04:49:40;;;;;;;12.50;6.45;;;2.80;99.90;;;2.65;78.48;99450.31;4786433;29;20222;-72
2022/04/09 04:52:09;;;;;;;9.10;4.40;;;2.80;99.90;;;2.64;78.55;99448.66;4787149;29;20210;-72
2022/04/09 04:54:38;;;;;;;15.90;5.28;;;2.80;99.90;;;2.73;78.56;99463.53;4790378;29;20285;-72
2022/04/09 04:57:11;;;;;;;13.40;5.28;;;2.80;99.90;;;2.97;77.99;99465.91;4788524;29;20199;-72
2022/04/09 04:59:40;;;;;;;12.50;4.82;;;2.90;99.90;;;3.57;75.98;99470.03;4818599;29;20234;-73
2022/04/09 05:02:09;;;;;;;5.95;4.22;;;3.20;99.90;;;4.00;73.62;99478.00;4818132;29;20198;-72
2022/04/09 05:04:38;;;;;;;14.98;5.32;;;3.40;99.90;;;3.98;73.40;99482.69;4818061;29;20598;-73
2022/04/09 05:07:10;;;;;;;9.27;5.28;;;3.50;99.90;;;3.72;74.04;99489.50;4817532;29;20202;-73
2022/04/09 05:09:39;;;;;;;10.38;4.43;;;3.60;99.90;;;3.42;74.76;99491.47;4817407;29;20366;-72
2022/04/09 05:12:10;;;;;;;9.95;4.70;;;3.50;99.90;;;3.27;75.67;99492.53;4787169;29;20213;-72
2022/04/09 05:14:43;;;;;;;9.40;4.68;;;3.30;99.90;;;3.12;75.96;99505.94;4787252;30;20228;-74
2022/04/09 05:17:16;;;;;;;14.13;4.88;;;3.20;99.90;;;2.95;76.69;99508.00;4817118;29;20208;-72
2022/04/09 05:19:45;;;;;;;8.10;4.47;;;3.10;99.90;;;2.96;76.96;99516.84;4817407;29;20241;-73
2022/04/09 05:22:15;;;;;;;13.85;4.22;;;3.10;99.90;;;3.00;76.94;99518.94;4818946;29;20550;-73
2022/04/09 05:24:56;;;;;;;9.13;4.80;;;3.10;99.90;;;3.06;76.61;99528.91;4818772;29;20222;-73
2022/04/09 05:27:28;;;;;;;9.70;5.47;;;3.10;99.90;;;3.13;76.23;99538.84;4788115;30;20587;-73
2022/04/09 05:30:00;;;;;;;14.63;5.75;;;3.20;99.90;;;3.10;76.34;99539.25;4818546;29;20260;-73
2022/04/09 05:32:36;;;;;;;14.88;4.93;;;3.20;99.90;;;3.23;76.28;99534.03;4786987;29;20200;-73
2022/04/09 05:35:06;;;;;;;8.23;4.85;;;3.20;99.90;;;3.15;76.52;99542.19;4816725;29;20202;-72
2022/04/09 05:37:35;;;;;;;9.38;4.95;;;3.20;99.90;;;3.19;76.28;99552.31;4816968;29;20194;-73
2022/04/09 05:40:05;;;;;;;8.10;4.25;;;3.30;99.90;;;3.21;76.11;99552.94;4816672;29;20230;-73
2022/04/09 05:42:36;;;;;;;13.68;4.32;;;3.30;99.90;;;3.24;76.33;99557.94;4787811;29;20189;-73
2022/04/09 05:45:07;;;;;;;9.85;3.88;;;3.30;99.90;;;3.25;76.13;99569.41;4786995;29;20674;-72
2022/04/09 05:47:43;;;;;;;10.82;4.25;;;3.30;99.90;;;3.37;75.75;99578.63;4817073;29;20304;-73
2022/04/09 05:50:17;;;;;;;14.70;4.80;;;3.40;99.90;;;3.43;75.78;99578.72;4789111;29;20217;-72
2022/04/09 05:52:46;;;;;;;12.23;4.28;;;3.40;99.90;;;3.60;75.01;99592.69;4818030;29;20289;-74
2022/04/09 05:55:17;;;;;;;7.68;4.55;;;3.60;99.90;;;3.62;75.10;99596.00;4788181;29;20198;-73
2022/04/09 05:57:48;;;;;;;7.45;4.65;;;3.60;99.90;;;3.91;74.33;99613.81;4817644;29;20190;-74
2022/04/09 06:00:19;;;;;;;10.98;3.70;;;3.80;99.90;;;4.19;72.86;99611.19;4816987;29;20654;-74
2022/04/09 06:03:01;;;;;;;8.13;3.83;;;4.00;99.90;;;4.34;72.98;99617.31;4816359;29;20297;-74
2022/04/09 06:05:37;;;;;;;6.68;3.85;;;4.20;99.90;;;4.39;72.75;99628.25;4815630;29;20647;-72
2022/04/09 06:08:12;;;;;;;9.02;4.35;;;4.30;99.90;;;4.34;72.56;99630.69;4816515;29;20190;-74
2022/04/09 06:10:42;;;;;;;8.23;4.85;;;4.30;99.90;;;4.53;72.50;99631.88;4815892;29;20456;-73
2022/04/09 06:13:13;;;;;;;6.40;3.63;;;4.40;99.90;;;4.78;71.24;99636.63;4815850;29;20206;-73
2022/04/09 06:15:42;;;;;;;7.70;4.05;;;4.60;99.90;;;4.73;71.36;99640.91;4815565;29;20199;-73
2022/04/09 06:18:17;;;;;;;11.50;4.30;;;4.60;99.90;;;4.85;70.55;99642.00;4815767;29;20669;-73
2022/04/09 06:20:46;;;;;;;8.27;4.00;;;4.80;99.90;;;4.96;69.98;99648.69;4786830;29;20859;-73
2022/04/09 06:23:17;;;;;;;12.07;4.13;;;4.90;99.90;;;5.06;69.66;99659.88;4815783;29;20243;-73
2022/04/09 06:25:46;;;;;;;6.15;3.42;;;5.00;99.90;;;4.97;69.59;99656.53;4816292;29;20194;-74
2022/04/09 06:28:19;;;;;;;11.35;4.15;;;5.00;99.90;;;4.99;69.83;99667.03;4815824;29;20765;-73
2022/04/09 06:30:49;;;;;;;4.25;3.85;;;5.00;99.90;;;5.17;69.24;99659.34;4815610;29;20314;-73
2022/04/09 06:33:22;;;;;;;7.88;3.78;;;5.10;99.90;;;5.35;68.64;99662.34;4815202;29;20202;-73
2022/04/09 06:35:52;;;;;;;8.65;4.18;;;5.30;99.90;;;5.35;68.74;99666.88;4786828;29;20292;-73
2022/04/09 06:38:27;;;;;;;6.63;4.38;;;5.30;99.90;;;5.22;68.92;99670.31;4815437;29;20206;-73
2022/04/09 06:40:58;;;;;;;13.40;4.13;;;5.30;99.90;;;5.17;68.61;99678.13;4786736;29;20267;-73
2022/04/09 06:43:37;;;;;;;16.45;5.10;;;5.30;99.90;;;5.29;68.06;99673.84;4815367;29;20670;-72
2022/04/09 06:46:32;;;;;;;19.15;4.43;;;5.30;99.90;;;5.24;67.98;99678.97;4788380;29;20212;-72
2022/04/09 06:49:14;;;;;;;10.00;4.55;;;5.30;99.90;;;5.11;67.82;99676.22;4816830;29;20199;-71
2022/04/09 06:51:47;;;;;;;8.15;5.22;;;5.30;99.90;;;5.16;68.34;99695.22;4787955;29;20182;-72
2022/04/09 06:54:29;;;;;;;11.75;5.20;;;5.20;99.90;;;5.62;67.68;99696.31;4816549;29;20194;-71
2022/04/09 06:56:58;;;;;;;9.23;4.53;;;5.40;99.90;;;5.47;66.55;99702.84;4816494;29;20205;-72
2022/04/09 06:59:32;;;;;;;11.75;3.65;;;5.50;95.70;;;5.37;66.80;99697.84;4786505;29;20216;-72
2022/04/09 07:02:01;;;;;;;8.50;4.82;;;5.50;96.20;;;5.65;66.47;99713.88;4817004;29;20193;-73
2022/04/09 07:04:30;;;;;;;8.60;4.20;;;5.60;96.60;;;5.80;66.04;99713.75;4788059;29;20214;-72
2022/04/09 07:06:59;;;;;;;10.68;5.20;;;5.70;94.10;;;5.85;65.80;99719.34;4787817;29;20178;-73
2022/04/09 07:09:28;;;;;;;12.88;4.13;;;5.80;93.30;;;5.79;65.44;99717.44;4787575;29;20275;-72
2022/04/09 07:11:57;;;;;;;8.32;4.10;;;5.80;89.70;;;6.06;64.56;99717.38;4796404;29;20646;-72
2022/04/09 07:14:26;;;;;;;8.10;4.13;;;6.00;86.30;;;6.59;63.15;99722.88;4805244;29;20730;-71
2022/04/09 07:17:00;;;;;;;10.52;3.38;;;6.30;83.40;;;6.73;62.95;99734.50;4805938;29;20189;-72
2022/04/09 07:19:29;;;;;;;8.77;4.50;;;6.50;73.20;;;6.55;63.17;99737.75;4805479;29;20185;-72
2022/04/09 07:21:59;;;;;;;12.18;4.22;;;6.50;65.70;;;6.61;63.02;99746.88;4804891;29;20308;-72
2022/04/09 07:24:29;;;;;;;8.82;3.83;;;6.50;64.20;;;6.63;62.85;99742.13;4804908;29;20608;-72
2022/04/09 07:26:57;;;;;;;7.95;5.55;;;6.50;65.00;;;6.68;62.42;99755.78;4805089;29;20235;-72
2022/04/09 07:29:26;;;;;;;13.98;5.30;;;6.60;63.50;;;6.53;62.89;99746.03;4804259;29;20209;-72
2022/04/09 07:31:57;;;;;;;8.45;4.40;;;6.60;60.00;;;6.35;63.44;99759.22;4807038;29;20265;-72
2022/04/09 07:34:26;;;;;;;5.78;4.75;;;6.50;61.70;;;6.49;63.06;99762.75;4805303;29;20246;-73
2022/04/09 07:36:55;;;;;;;6.68;4.50;;;6.40;65.10;;;6.84;62.31;99756.22;4803663;29;20242;-74
2022/04/09 07:39:24;;;;;;;13.05;4.93;;;6.70;61.10;;;6.87;62.18;99765.75;4805955;29;20714;-72
2022/04/09 07:41:53;;;;;;;8.18;4.05;;;6.70;58.70;;;7.31;61.52;99779.38;4805608;29;20579;-73
2022/04/09 07:44:23;;;;;;;13.52;7.05;;;7.00;58.60;;;7.45;60.67;99784.78;4805176;29;20209;-73
2022/04/09 07:46:52;;;;;;;10.98;4.45;;;7.20;50.10;;;7.23;60.96;99774.22;4804745;29;20190;-73
2022/04/09 07:49:22;;;;;;;8.45;4.70;;;7.20;47.40;;;6.93;61.56;99792.63;4804938;29;20185;-73
2022/04/09 07:51:51;;;;;;;9.88;3.38;;;7.00;48.20;;;6.87;61.86;99792.63;4805147;29;20177;-72
2022/04/09 07:54:21;;;;;;;9.40;3.45;;;6.90;51.00;;;7.39;60.95;99787.25;4804887;29;20206;-72
2022/04/09 07:56:50;;;;;;;8.38;4.05;;;7.10;52.00;;;7.88;60.49;99788.63;4803919;29;20263;-73
2022/04/09 07:59:18;;;;;;;9.05;4.10;;;7.40;50.80;;;7.93;58.89;99788.81;4804705;29;20221;-73
2022/04/09 08:01:48;;;;;;;13.57;3.72;;;7.70;39.70;;;8.14;58.31;99796.59;4804963;29;20690;-72
2022/04/09 08:04:17;;;;;;;12.63;4.68;;;7.90;36.90;;;8.12;57.92;99798.72;4805281;29;20190;-73
2022/04/09 08:06:48;;;;;;;11.57;4.38;;;8.00;33.50;;;7.82;58.91;99786.78;4805296;29;20669;-72
2022/04/09 08:09:17;;;;;;;10.98;4.00;;;7.80;32.60;;;8.04;57.36;99801.63;4804706;29;20174;-71
2022/04/09 08:11:46;;;;;;;17.83;5.15;;;8.00;29.10;;;8.43;57.09;99800.66;4805337;29;20669;-73
2022/04/09 08:14:16;;;;;;;8.40;4.10;;;8.10;29.90;;;8.72;55.65;99807.34;4805728;29;20566;-73
2022/04/09 08:16:45;;;;;;;12.82;4.15;;;8.30;25.70;;;8.52;54.26;99814.75;4805943;29;20185;-73
2022/04/09 08:19:15;;;;;;;8.68;3.58;;;8.40;20.30;;;8.59;54.95;99812.81;4805894;29;20206;-73
2022/04/09 08:21:44;;;;;;;13.93;3.60;;;8.50;20.80;;;8.91;53.65;99816.38;4805192;29;20665;-73
2022/04/09 08:24:14;;;;;;;9.43;5.38;;;8.60;19.10;;;8.84;53.30;99823.69;4805147;29;20189;-73
2022/04/09 08:26:43;;;;;;;7.15;3.92;;;8.60;17.50;;;8.64;53.80;99830.03;4805433;29;20186;-72
2022/04/09 08:29:16;;;;;;;13.52;3.95;;;8.60;17.00;;;8.37;53.69;99828.50;4808452;29;20594;-72
2022/04/09 08:31:47;;;;;;;5.53;3.15;;;8.40;15.40;;;8.37;54.33;99830.38;4809143;29;20182;-72
2022/04/09 08:34:18;;;;;;;7.28;3.35;;;8.30;17.40;;;8.26;54.97;99838.03;4807435;29;20675;-73
2022/04/09 08:36:49;;;;;;;8.93;3.35;;;8.20;18.20;;;8.45;54.08;99830.94;4808259;29;20181;-73
2022/04/09 08:39:19;;;;;;;15.40;3.80;;;8.30;16.80;;;8.37;53.49;99843.84;4808565;29;20261;-73
2022/04/09 08:41:53;;;;;;;7.88;3.30;;;8.20;16.00;;;7.90;52.82;99831.50;4808224;29;20229;-72
2022/04/09 08:44:22;;;;;;;7.85;3.78;;;8.00;13.60;;;7.98;54.04;99842.91;4808848;29;20239;-72
2022/04/09 08:46:51;;;;;;;9.68;4.28;;;8.00;15.10;;;8.20;54.03;99841.56;4808423;29;20280;-74
2022/04/09 08:49:25;;;;;;;12.43;3.70;;;8.10;15.90;;;7.91;54.32;99854.69;4808818;29;20638;-73
2022/04/09 08:51:55;;;;;;;9.82;3.45;;;7.90;15.00;;;8.25;53.60;99849.84;4808406;29;20193;-73
2022/04/09 08:54:25;;;;;;;7.22;3.58;;;8.00;15.50;;;8.51;52.83;99848.13;4808519;29;20266;-73
2022/04/09 08:56:54;;;;;;;4.25;3.08;;;8.30;14.60;;;8.38;52.68;99849.00;4808546;29;20284;-72
2022/04/09 08:59:26;;;;;;;10.23;3.92;;;8.40;13.10;;;8.36;53.26;99855.66;4808210;29;20205;-72
2022/04/09 09:01:55;;;;;;;8.10;4.70;;;8.30;13.60;;;8.41;51.76;99845.06;4807702;29;20239;-72
2022/04/09 09:04:24;;;;;;;4.82;3.03;;;8.50;11.70;;;8.25;52.47;99847.16;4808429;29;20261;-72
2022/04/09 09:06:53;;;;;;;9.98;3.10;;;8.30;12.10;;;8.13;50.99;99856.94;4809192;29;20205;-71
2022/04/09 09:09:31;;;;;;;4.63;3.25;;;8.20;9.80;;;8.17;51.60;99860.88;4808511;29;20205;-73
2022/04/09 09:12:02;;;;;;;10.57;4.20;;;8.20;10.20;;;8.93;50.10;99860.16;4808323;29;20660;-73
2022/04/09 09:14:36;;;;;;;10.35;3.70;;;8.50;10.00;;;8.96;50.02;99860.53;4808654;29;20181;-73
2022/04/09 09:17:05;;;;;;;10.40;3.53;;;8.80;8.90;;;8.90;49.83;99850.63;4808256;29;20206;-73
2022/04/09 09:19:43;;;;;;;11.30;4.38;;;8.80;7.80;;;9.08;48.48;99852.59;4808351;29;20178;-74
2022/04/09 09:22:12;;;;;;;5.35;2.80;;;9.00;5.40;;;8.65;47.81;99863.22;4808107;29;20282;-73
2022/04/09 09:24:42;;;;;;;5.15;2.78;;;8.80;3.40;;;8.80;48.07;99861.06;4807556;29;20250;-72
2022/04/09 09:27:11;;;;;;;9.23;3.92;;;8.70;4.20;;;8.72;47.99;99861.31;4807312;29;20239;-72
2022/04/09 09:30:18;;;;;;;9.98;3.90;;;8.70;3.20;;;9.20;46.77;99855.44;4819486;29;20600;-73
2022/04/09 09:33:46;;;;;;;6.57;3.15;;;8.90;3.10;;;9.15;44.91;99867.69;4821074;29;20977;-75
2022/04/09 09:36:36;;;;;;;9.05;2.90;;;9.20;1.00;;;9.13;45.52;99856.31;4837474;29;20296;-73
2022/04/09 09:39:07;;;;;;;4.32;2.70;;;9.20;1.00;;;9.04;46.69;99863.00;4806779;29;20193;-72
2022/04/09 09:41:49;;;;;;;9.45;3.05;;;9.10;1.00;;;9.10;47.03;99856.72;4806990;29;20217;-73
2022/04/09 09:44:21;;;;;;;5.88;3.30;;;9.10;1.00;;;9.59;46.99;99857.81;4807323;29;20186;-74
2022/04/09 09:46:53;;;;;;;13.32;6.45;;;9.30;1.00;;;9.46;45.62;99849.81;4807075;29;20258;-73
2022/04/09 09:49:24;;;;;;;5.47;2.60;;;9.40;1.00;;;9.67;46.52;99856.72;4806683;29;20189;-73
2022/04/09 09:52:08;;;;;;;7.28;2.60;;;9.50;1.00;;;9.61;46.13;99866.53;4807113;29;20178;-74
2022/04/09 09:54:57;;;;;;;4.68;2.95;;;9.50;1.00;;;9.37;44.66;99867.34;4807158;29;20611;-72
2022/04/09 09:57:29;;;;;;;4.30;2.50;;;9.40;1.00;;;8.73;45.85;99865.66;4807053;29;20174;-74
2022/04/09 10:00:02;;;;;;;5.20;2.50;;;8.90;1.00;;;8.37;47.22;99851.94;4806896;29;20219;-73
2022/04/09 10:02:35;;;;;;;6.80;2.22;;;8.50;1.00;;;9.05;46.81;99864.63;4806483;29;20205;-72
2022/04/09 10:05:07;;;;;;;7.85;3.10;;;8.80;1.00;;;9.15;46.27;99870.38;4805404;29;20210;-73
2022/04/09 10:07:36;;;;;;;8.10;3.20;;;9.10;1.00;;;9.44;45.59;99866.22;4806755;29;20190;-73
2022/04/09 10:10:07;;;;;;;8.70;3.33;;;9.30;1.00;;;9.40;44.93;99858.78;4806373;29;20225;-74
2022/04/09 10:12:41;;;;;;;7.25;2.70;;;9.40;1.00;;;9.45;44.65;99859.78;4836564;29;20658;-73
2022/04/09 10:15:12;;;;;;;8.35;2.90;;;9.40;1.00;;;9.73;44.63;99863.94;4806362;29;20207;-73
2022/04/09 10:17:42;;;;;;;6.07;2.70;;;9.50;1.00;;;10.02;44.20;99869.47;4806523;29;20170;-72
2022/04/09 10:20:12;;;;;;;5.60;2.97;;;9.80;1.00;;;10.04;44.52;99869.25;4806147;29;20214;-74
2022/04/09 10:22:47;;;;;;;3.97;2.50;;;9.90;1.00;;;10.15;44.17;99859.56;4806248;29;20217;-73
2022/04/09 10:25:19;;;;;;;8.33;2.43;;;10.00;1.00;;;9.96;44.20;99862.25;4803418;29;20288;-75
2022/04/09 10:27:53;;;;;;;7.55;3.30;;;9.90;1.00;;;9.82;44.11;99868.84;4801380;29;20421;-74
2022/04/09 10:30:24;;;;;;;9.77;4.00;;;9.70;1.00;;;9.76;44.49;99871.59;4809878;29;20737;-73
2022/04/09 10:32:57;;;;;;;6.00;3.13;;;9.60;1.00;;;9.88;44.44;99877.91;4809115;29;20205;-73
2022/04/09 10:35:38;;;;;;;5.78;2.88;;;9.70;1.00;;;9.69;44.47;99871.63;4806311;29;20639;-73
2022/04/09 10:38:22;;;;;;;7.13;2.72;;;9.70;1.00;;;9.95;44.93;99874.13;4806451;29;20178;-73
2022/04/09 10:41:31;;;;;;;6.03;2.55;;;9.80;1.00;;;9.56;45.24;99872.59;4806208;29;20599;-74
2022/04/09 10:44:02;;;;;;;5.93;2.40;;;9.60;1.00;;;9.14;45.64;99874.16;4805735;29;20543;-73
2022/04/09 10:46:34;;;;;;;5.43;2.65;;;9.30;1.00;;;9.25;45.77;99882.56;4806670;29;20186;-74
2022/04/09 10:49:28;;;;;;;4.70;2.13;;;9.20;1.00;;;9.54;45.77;99879.25;4807132;29;20192;-74
2022/04/09 10:52:19;;;;;;;5.00;2.03;;;9.30;1.00;;;10.21;44.07;99869.53;4806101;29;20654;-74